createdAt,value
2019-01-17T00:02:04.215Z,1.70
2019-01-17T00:04:36.677Z,2.42
2019-01-17T00:07:09.741Z,1.90
2019-01-17T00:09:51.945Z,1.70
2019-01-17T00:12:22.772Z,2.02
2019-01-17T00:14:52.835Z,1.70
2019-01-17T00:17:39.233Z,1.87
2019-01-17T00:20:19.245Z,2.00
2019-01-17T00:22:50.262Z,1.57
2019-01-17T00:25:32.256Z,1.65
2019-01-17T00:28:08.429Z,1.50
2019-01-17T00:30:44.553Z,1.45
2019-01-17T00:33:17.289Z,1.90
2019-01-17T00:35:59.505Z,2.08
2019-01-17T00:38:30.325Z,1.60
2019-01-17T00:41:00.886Z,2.00
2019-01-17T00:43:43.166Z,1.47
2019-01-17T00:46:31.312Z,1.75
2019-01-17T00:49:07.365Z,1.75
2019-01-17T00:51:43.165Z,1.47
2019-01-17T00:54:22.361Z,1.60
2019-01-17T00:56:58.250Z,2.00
2019-01-17T00:59:28.337Z,1.75
2019-01-17T01:02:04.224Z,1.82
2019-01-17T01:04:50.794Z,2.25
2019-01-17T01:07:37.335Z,1.37
2019-01-17T01:10:26.973Z,2.02
2019-01-17T01:12:57.030Z,1.55
2019-01-17T01:15:33.158Z,1.80
2019-01-17T01:18:03.208Z,1.80
2019-01-17T01:20:39.637Z,1.55
2019-01-17T01:23:24.926Z,1.30
2019-01-17T01:25:58.220Z,1.50
2019-01-17T01:28:37.481Z,1.50
2019-01-17T01:31:22.978Z,1.55
2019-01-17T01:33:53.022Z,1.40
2019-01-17T01:36:42.689Z,1.70
2019-01-17T01:39:15.463Z,1.25
2019-01-17T01:41:45.518Z,1.40
2019-01-17T01:44:31.115Z,1.40
2019-01-17T01:47:04.149Z,1.40
2019-01-17T01:49:34.205Z,1.40
2019-01-17T01:52:19.393Z,1.80
2019-01-17T01:54:47.809Z,1.35
2019-01-17T01:57:16.220Z,1.52
2019-01-17T01:59:45.252Z,1.70
2019-01-17T02:02:13.657Z,1.60
2019-01-17T02:04:42.073Z,1.80
2019-01-17T02:07:10.598Z,1.32
2019-01-17T02:09:39.084Z,1.22
2019-01-17T02:12:07.516Z,1.50
2019-01-17T02:14:36.248Z,1.60
2019-01-17T02:17:04.794Z,1.40
2019-01-17T02:19:33.197Z,1.35
2019-01-17T02:22:02.184Z,1.37
2019-01-17T02:24:30.599Z,1.50
2019-01-17T02:26:59.017Z,1.20
2019-01-17T02:29:27.470Z,1.27
2019-01-17T02:31:55.881Z,1.32
2019-01-17T02:34:24.294Z,1.27
2019-01-17T02:36:52.761Z,1.40
2019-01-17T02:39:21.292Z,1.47
2019-01-17T02:41:49.773Z,1.32
2019-01-17T02:44:19.618Z,1.10
2019-01-17T02:46:48.065Z,1.65
2019-01-17T02:49:16.485Z,1.27
2019-01-17T02:51:44.944Z,1.12
2019-01-17T02:54:13.353Z,1.40
2019-01-17T02:56:41.774Z,1.67
2019-01-17T02:59:10.239Z,1.27
2019-01-17T03:01:38.647Z,1.70
2019-01-17T03:04:07.054Z,1.07
2019-01-17T03:06:36.596Z,1.30
2019-01-17T03:09:07.375Z,1.30
2019-01-17T03:11:35.786Z,1.27
2019-01-17T03:14:04.601Z,1.35
2019-01-17T03:16:33.083Z,1.50
2019-01-17T03:19:01.488Z,1.20
2019-01-17T03:21:29.970Z,1.70
2019-01-17T03:23:58.409Z,1.40
2019-01-17T03:26:26.821Z,1.12
2019-01-17T03:28:55.494Z,1.22
2019-01-17T03:31:23.901Z,1.20
2019-01-17T03:33:52.322Z,1.00
2019-01-17T03:36:20.784Z,1.07
2019-01-17T03:38:49.189Z,1.15
2019-01-17T03:41:20.876Z,1.67
2019-01-17T03:43:50.271Z,1.10
2019-01-17T03:46:18.690Z,1.30
2019-01-17T03:48:47.094Z,1.20
2019-01-17T03:51:15.819Z,1.10
2019-01-17T03:53:44.233Z,1.30
2019-01-17T03:56:12.631Z,1.45
2019-01-17T03:58:41.270Z,1.00
2019-01-17T04:01:09.675Z,1.50
2019-01-17T04:03:38.090Z,1.65
2019-01-17T04:06:06.810Z,1.05
2019-01-17T04:08:35.224Z,1.40
2019-01-17T04:11:03.694Z,1.17
2019-01-17T04:13:32.348Z,1.40
2019-01-17T04:16:00.766Z,1.50
2019-01-17T04:18:29.244Z,1.30
2019-01-17T04:20:57.709Z,1.27
2019-01-17T04:23:26.122Z,1.00
2019-01-17T04:25:54.540Z,1.15
2019-01-17T04:28:22.994Z,1.00
2019-01-17T04:30:51.403Z,0.75
2019-01-17T04:33:19.828Z,1.52
2019-01-17T04:35:48.901Z,1.10
2019-01-17T04:38:17.306Z,1.25
2019-01-17T04:40:45.716Z,1.20
2019-01-17T04:43:19.768Z,1.52
2019-01-17T04:45:48.169Z,1.00
2019-01-17T04:48:16.578Z,1.42
2019-01-17T04:50:45.624Z,1.05
2019-01-17T04:53:14.046Z,1.10
2019-01-17T04:55:42.476Z,1.17
2019-01-17T04:58:11.270Z,1.05
2019-01-17T05:00:39.682Z,1.17
2019-01-17T05:03:08.102Z,1.12
2019-01-17T05:05:36.652Z,1.10
2019-01-17T05:08:05.142Z,1.07
2019-01-17T05:10:34.121Z,1.30
2019-01-17T05:13:02.843Z,0.90
2019-01-17T05:15:31.327Z,1.10
2019-01-17T05:17:59.738Z,0.82
2019-01-17T05:20:28.537Z,0.88
2019-01-17T05:22:56.953Z,0.90
2019-01-17T05:25:25.365Z,0.78
2019-01-17T05:27:53.822Z,0.90
2019-01-17T05:30:22.232Z,1.00
2019-01-17T05:32:50.649Z,0.95
2019-01-17T05:35:19.517Z,0.90
2019-01-17T05:37:47.923Z,0.82
2019-01-17T05:40:18.578Z,1.17
2019-01-17T05:42:47.949Z,0.95
2019-01-17T05:45:16.819Z,1.35
2019-01-17T05:47:45.453Z,0.98
2019-01-17T05:50:16.283Z,0.80
2019-01-17T05:52:44.761Z,0.90
2019-01-17T05:55:19.835Z,0.90
2019-01-17T05:57:43.980Z,0.82
2019-01-17T06:00:17.888Z,1.10
2019-01-17T06:02:46.361Z,1.05
2019-01-17T06:05:16.852Z,0.80
2019-01-17T06:07:45.428Z,0.90
2019-01-17T06:10:14.080Z,1.00
2019-01-17T06:12:42.628Z,0.95
2019-01-17T06:15:15.019Z,0.95
2019-01-17T06:17:43.430Z,1.20
2019-01-17T06:20:15.249Z,1.02
2019-01-17T06:22:43.656Z,0.85
2019-01-17T06:25:12.075Z,1.00
2019-01-17T06:27:40.898Z,1.10
2019-01-17T06:30:12.350Z,1.00
2019-01-17T06:32:40.763Z,1.07
2019-01-17T06:35:10.648Z,0.85
2019-01-17T06:37:39.106Z,0.90
2019-01-17T06:40:14.430Z,1.07
2019-01-17T06:42:43.895Z,1.03
2019-01-17T06:45:12.303Z,1.22
2019-01-17T06:47:41.030Z,1.25
2019-01-17T06:50:10.414Z,1.02
2019-01-17T06:52:39.029Z,1.42
2019-01-17T06:55:08.582Z,0.90
2019-01-17T06:57:37.202Z,1.40
2019-01-17T07:00:15.642Z,1.20
2019-01-17T07:02:44.619Z,1.30
2019-01-17T07:05:14.660Z,1.55
2019-01-17T07:07:43.738Z,1.50
2019-01-17T07:10:17.006Z,1.50
2019-01-17T07:12:46.240Z,1.80
2019-01-17T07:15:16.037Z,1.30
2019-01-17T07:17:44.441Z,1.33
2019-01-17T07:20:15.090Z,1.37
2019-01-17T07:22:44.128Z,1.25
2019-01-17T07:25:12.917Z,1.40
2019-01-17T07:27:41.400Z,1.23
2019-01-17T07:30:16.459Z,1.15
2019-01-17T07:32:44.861Z,1.35
2019-01-17T07:35:13.352Z,1.33
2019-01-17T07:37:42.429Z,1.22
2019-01-17T07:40:12.474Z,1.57
2019-01-17T07:42:40.879Z,1.17
2019-01-17T07:45:17.172Z,1.20
2019-01-17T07:47:45.588Z,1.00
2019-01-17T07:50:14.321Z,1.27
2019-01-17T07:52:43.549Z,1.12
2019-01-17T07:55:12.181Z,1.50
2019-01-17T07:57:40.705Z,1.23
2019-01-17T08:00:21.387Z,0.90
2019-01-17T08:02:49.797Z,1.50
2019-01-17T08:05:18.537Z,1.20
2019-01-17T08:07:47.545Z,1.10
2019-01-17T08:10:20.272Z,1.15
2019-01-17T08:12:48.920Z,1.00
2019-01-17T08:15:17.997Z,0.90
2019-01-17T08:17:46.401Z,1.00
2019-01-17T08:20:23.709Z,1.00
2019-01-17T08:22:52.358Z,1.03
2019-01-17T08:25:20.938Z,1.00
2019-01-17T08:27:49.723Z,1.00
2019-01-17T08:30:23.420Z,1.12
2019-01-17T08:32:51.841Z,1.10
2019-01-17T08:35:21.624Z,1.07
2019-01-17T08:37:50.200Z,0.88
2019-01-17T08:40:24.075Z,0.73
2019-01-17T08:42:53.417Z,1.00
2019-01-17T08:45:22.009Z,0.95
2019-01-17T08:47:51.009Z,1.00
2019-01-17T08:50:19.885Z,0.98
2019-01-17T08:52:48.368Z,1.17
2019-01-17T08:55:16.773Z,0.97
2019-01-17T08:57:46.485Z,0.85
2019-01-17T09:00:20.088Z,0.70
2019-01-17T09:02:48.499Z,0.70
2019-01-17T09:05:17.933Z,0.93
2019-01-17T09:07:46.521Z,1.05
2019-01-17T09:10:17.737Z,1.30
2019-01-17T09:12:46.361Z,1.15
2019-01-17T09:15:26.702Z,0.90
2019-01-17T09:17:55.611Z,1.05
2019-01-17T09:20:24.020Z,1.00
2019-01-17T09:22:52.447Z,0.90
2019-01-17T09:25:21.458Z,1.20
2019-01-17T09:27:49.880Z,0.78
2019-01-17T09:30:22.002Z,0.95
2019-01-17T09:32:50.597Z,0.70
2019-01-17T09:35:19.482Z,1.05
2019-01-17T09:37:48.053Z,0.90
2019-01-17T09:40:19.933Z,0.82
2019-01-17T09:42:48.413Z,0.98
2019-01-17T09:45:17.570Z,1.00
2019-01-17T09:47:46.809Z,0.93
2019-01-17T09:50:18.741Z,0.90
2019-01-17T09:52:47.875Z,0.90
2019-01-17T09:55:16.501Z,1.00
2019-01-17T09:57:45.088Z,0.90
2019-01-17T10:00:19.173Z,0.70
2019-01-17T10:02:47.664Z,1.10
2019-01-17T10:05:16.072Z,0.98
2019-01-17T10:07:45.011Z,0.90
2019-01-17T10:10:16.496Z,1.00
2019-01-17T10:12:44.975Z,0.70
2019-01-17T10:15:26.233Z,1.07
2019-01-17T10:18:17.013Z,0.80
2019-01-17T10:21:18.357Z,0.93
2019-01-17T10:23:52.713Z,0.80
2019-01-17T10:26:42.785Z,0.80
2019-01-17T10:29:26.301Z,0.80
2019-01-17T10:32:17.705Z,0.80
2019-01-17T10:35:08.543Z,0.90
2019-01-17T10:37:57.811Z,0.80
2019-01-17T10:40:32.107Z,0.80
2019-01-17T10:43:09.823Z,0.98
2019-01-17T10:45:59.155Z,0.95
2019-01-17T10:48:59.939Z,0.90
2019-01-17T10:51:50.519Z,0.80
2019-01-17T10:54:55.524Z,1.02
2019-01-17T10:57:29.674Z,1.40
2019-01-17T11:00:06.572Z,0.75
2019-01-17T11:02:40.960Z,1.07
2019-01-17T11:05:24.132Z,1.00
2019-01-17T11:07:55.654Z,0.90
2019-01-17T11:10:46.577Z,0.80
2019-01-17T11:13:40.844Z,1.00
2019-01-17T11:16:25.324Z,1.17
2019-01-17T11:19:14.589Z,1.27
2019-01-17T11:21:57.813Z,0.90
2019-01-17T11:24:48.689Z,0.90
2019-01-17T11:27:26.219Z,0.88
2019-01-17T11:30:19.778Z,0.90
2019-01-17T11:32:57.893Z,0.80
2019-01-17T11:35:31.915Z,0.80
2019-01-17T11:38:15.507Z,2.40
2019-01-17T11:41:04.763Z,8.38
2019-01-17T11:44:02.281Z,15.18
2019-01-17T11:46:57.871Z,27.40
2019-01-17T11:49:52.889Z,34.18
2019-01-17T11:52:26.786Z,43.92
2019-01-17T11:55:03.597Z,45.28
2019-01-17T11:57:53.099Z,47.20
2019-01-17T12:00:45.948Z,45.73
2019-01-17T12:03:29.202Z,46.88
2019-01-17T12:05:58.842Z,43.20
2019-01-17T12:08:27.268Z,45.63
2019-01-17T12:10:55.698Z,45.23
2019-01-17T12:13:24.291Z,44.20
2019-01-17T12:15:52.706Z,45.15
2019-01-17T12:18:21.137Z,60.03
2019-01-17T12:20:50.566Z,45.60
2019-01-17T12:23:18.983Z,43.50
2019-01-17T12:25:47.406Z,43.87
2019-01-17T12:28:16.943Z,42.23
2019-01-17T12:30:46.465Z,42.33
2019-01-17T12:33:14.877Z,43.75
2019-01-17T12:35:43.809Z,42.30
2019-01-17T12:38:12.288Z,40.05
2019-01-17T12:40:40.717Z,40.70
2019-01-17T12:43:10.160Z,40.70
2019-01-17T12:45:38.580Z,42.50
2019-01-17T12:48:07.006Z,41.02
2019-01-17T12:50:35.813Z,40.60
2019-01-17T12:53:05.033Z,39.18
2019-01-17T12:55:33.475Z,38.60
2019-01-17T12:58:01.967Z,38.98
2019-01-17T13:00:30.388Z,37.63
2019-01-17T13:02:58.829Z,38.00
2019-01-17T13:05:27.930Z,34.78
2019-01-17T13:07:56.349Z,35.55
2019-01-17T13:10:24.802Z,34.58
2019-01-17T13:12:54.109Z,36.10
2019-01-17T13:15:22.521Z,32.90
2019-01-17T13:17:50.953Z,34.38
2019-01-17T13:20:19.748Z,33.10
2019-01-17T13:22:48.173Z,31.82
2019-01-17T13:25:18.837Z,30.02
2019-01-17T13:27:47.729Z,29.87
2019-01-17T13:30:18.576Z,27.75
2019-01-17T13:32:47.428Z,27.27
2019-01-17T13:35:16.470Z,28.40
2019-01-17T13:37:44.954Z,27.87
2019-01-17T13:40:19.123Z,25.50
2019-01-17T13:42:47.619Z,27.52
2019-01-17T13:45:20.533Z,27.80
2019-01-17T13:47:49.844Z,26.10
2019-01-17T13:50:18.505Z,26.15
2019-01-17T13:52:46.996Z,25.92
2019-01-17T13:55:17.532Z,26.02
2019-01-17T13:57:46.121Z,25.30
2019-01-17T14:00:20.139Z,25.37
2019-01-17T14:02:48.633Z,24.60
2019-01-17T14:05:17.118Z,25.32
2019-01-17T14:07:46.703Z,24.77
2019-01-17T14:10:16.686Z,25.92
2019-01-17T14:12:45.166Z,22.80
2019-01-17T14:15:19.542Z,25.92
2019-01-17T14:17:47.957Z,22.62
2019-01-17T14:20:16.462Z,22.95
2019-01-17T14:22:45.173Z,22.22
2019-01-17T14:25:15.624Z,22.75
2019-01-17T14:27:44.059Z,22.02
2019-01-17T14:30:21.674Z,22.48
2019-01-17T14:32:50.093Z,22.85
2019-01-17T14:35:18.572Z,21.62
2019-01-17T14:37:47.320Z,21.30
2019-01-17T14:40:15.762Z,21.02
2019-01-17T14:42:44.181Z,20.85
2019-01-17T14:45:15.493Z,18.55
2019-01-17T14:47:43.926Z,18.87
2019-01-17T14:50:17.989Z,17.75
2019-01-17T14:52:47.233Z,16.52
2019-01-17T14:55:15.780Z,17.70
2019-01-17T14:57:44.918Z,17.00
2019-01-17T15:00:18.949Z,17.00
2019-01-17T15:02:47.382Z,16.57
2019-01-17T15:05:15.944Z,16.05
2019-01-17T15:07:45.078Z,15.48
2019-01-17T15:10:28.353Z,15.98
2019-01-17T15:12:59.562Z,15.38
2019-01-17T15:15:28.049Z,15.58
2019-01-17T15:17:56.545Z,15.28
2019-01-17T15:20:25.342Z,14.85
2019-01-17T15:22:53.762Z,15.03
2019-01-17T15:25:22.361Z,14.87
2019-01-17T15:27:51.466Z,14.55
2019-01-17T15:30:25.047Z,14.13
2019-01-17T15:32:54.100Z,14.47
2019-01-17T15:35:23.033Z,14.20
2019-01-17T15:37:51.448Z,15.00
2019-01-17T15:40:25.470Z,14.47
2019-01-17T15:42:54.441Z,13.53
2019-01-17T15:45:22.925Z,14.30
2019-01-17T15:47:51.348Z,14.98
2019-01-17T15:50:20.747Z,13.58
2019-01-17T15:52:49.233Z,14.23
2019-01-17T15:55:18.385Z,15.63
2019-01-17T15:57:47.082Z,12.82
2019-01-17T16:00:18.892Z,13.15
2019-01-17T16:02:47.312Z,13.22
2019-01-17T16:05:17.826Z,12.53
2019-01-17T16:07:46.234Z,12.60
2019-01-17T16:10:15.994Z,13.10
2019-01-17T16:12:44.876Z,12.80
2019-01-17T16:15:18.664Z,12.28
2019-01-17T16:17:47.146Z,12.60
2019-01-17T16:20:17.164Z,12.13
2019-01-17T16:22:45.878Z,11.93
2019-01-17T16:25:15.215Z,11.83
2019-01-17T16:27:44.309Z,11.88
2019-01-17T16:30:18.283Z,15.83
2019-01-17T16:32:47.759Z,12.10
2019-01-17T16:35:16.262Z,12.90
2019-01-17T16:37:44.705Z,11.65
2019-01-17T16:40:14.193Z,11.57
2019-01-17T16:42:42.682Z,11.53
2019-01-17T16:45:21.853Z,11.05
2019-01-17T16:47:50.354Z,12.15
2019-01-17T16:50:21.368Z,11.53
2019-01-17T16:52:49.928Z,11.22
2019-01-17T16:55:18.712Z,11.55
2019-01-17T16:57:49.201Z,11.43
2019-01-17T17:00:31.703Z,11.60
2019-01-17T17:03:00.126Z,11.08
2019-01-17T17:05:28.561Z,11.50
2019-01-17T17:07:57.302Z,10.30
2019-01-17T17:10:25.793Z,10.08
2019-01-17T17:12:54.212Z,9.75
2019-01-17T17:15:22.854Z,9.80
2019-01-17T17:17:51.284Z,9.33
2019-01-17T17:20:22.030Z,9.65
2019-01-17T17:22:51.357Z,9.38
2019-01-17T17:25:19.776Z,9.28
2019-01-17T17:27:48.277Z,9.55
2019-01-17T17:30:22.406Z,8.70
2019-01-17T17:32:50.835Z,9.45
2019-01-17T17:35:19.323Z,8.90
2019-01-17T17:37:47.886Z,8.65
2019-01-17T17:40:21.772Z,9.88
2019-01-17T17:42:50.531Z,8.38
2019-01-17T17:45:20.412Z,8.63
2019-01-17T17:47:48.887Z,9.90
2019-01-17T17:50:19.283Z,8.55
2019-01-17T17:52:47.990Z,7.53
2019-01-17T17:55:17.723Z,10.00
2019-01-17T17:57:46.324Z,8.20
2019-01-17T18:00:21.290Z,8.88
2019-01-17T18:02:50.594Z,8.40
2019-01-17T18:05:19.016Z,8.00
2019-01-17T18:07:49.015Z,7.78
2019-01-17T18:10:17.666Z,7.87
2019-01-17T18:12:46.105Z,7.90
2019-01-17T18:15:16.493Z,7.20
2019-01-17T18:17:44.997Z,9.23
2019-01-17T18:20:14.959Z,7.15
2019-01-17T18:22:43.617Z,6.37
2019-01-17T18:25:12.646Z,9.03
2019-01-17T18:27:41.085Z,7.28
2019-01-17T18:30:22.301Z,6.35
2019-01-17T18:32:50.956Z,6.78
2019-01-17T18:35:19.461Z,8.35
2019-01-17T18:37:48.435Z,6.35
2019-01-17T18:40:18.594Z,5.87
2019-01-17T18:42:47.260Z,5.97
2019-01-17T18:45:27.851Z,5.85
2019-01-17T18:47:56.238Z,6.25
2019-01-17T18:50:27.451Z,5.97
2019-01-17T18:52:56.070Z,5.40
2019-01-17T18:55:24.476Z,6.05
2019-01-17T18:57:52.969Z,6.17
2019-01-17T19:00:28.676Z,5.83
2019-01-17T19:02:58.122Z,5.72
2019-01-17T19:05:30.736Z,5.67
2019-01-17T19:07:59.221Z,5.95
2019-01-17T19:10:27.886Z,5.60
2019-01-17T19:12:56.300Z,5.50
2019-01-17T19:15:27.504Z,5.78
2019-01-17T19:17:55.983Z,5.17
2019-01-17T19:20:24.402Z,5.42
2019-01-17T19:22:53.746Z,5.80
2019-01-17T19:25:22.257Z,5.35
2019-01-17T19:27:50.842Z,6.00
2019-01-17T19:30:24.390Z,5.12
2019-01-17T19:32:52.877Z,5.55
2019-01-17T19:35:21.536Z,5.22
2019-01-17T19:37:50.352Z,5.40
2019-01-17T19:40:21.006Z,5.30
2019-01-17T19:42:49.434Z,4.97
2019-01-17T19:45:18.349Z,4.78
2019-01-17T19:47:46.898Z,5.25
2019-01-17T19:50:29.973Z,4.62
2019-01-17T19:52:58.737Z,4.45
2019-01-17T19:55:27.235Z,4.70
2019-01-17T19:57:55.775Z,4.70
2019-01-17T20:00:24.270Z,4.67
2019-01-17T20:02:52.860Z,4.72
2019-01-17T20:05:24.969Z,5.10
2019-01-17T20:07:54.012Z,4.30
2019-01-17T20:10:27.930Z,4.60
2019-01-17T20:12:56.600Z,4.45
2019-01-17T20:15:25.075Z,4.42
2019-01-17T20:17:53.496Z,4.80
2019-01-17T20:20:22.193Z,4.33
2019-01-17T20:22:50.605Z,4.53
2019-01-17T20:25:19.269Z,4.00
2019-01-17T20:27:48.805Z,5.53
2019-01-17T20:30:23.346Z,4.17
2019-01-17T20:32:51.829Z,4.33
2019-01-17T20:35:20.531Z,4.03
2019-01-17T20:37:49.013Z,4.40
2019-01-17T20:40:19.862Z,3.92
2019-01-17T20:42:48.491Z,4.15
2019-01-17T20:45:17.235Z,3.70
2019-01-17T20:47:45.661Z,3.60
2019-01-17T20:50:17.607Z,5.17
2019-01-17T20:52:46.023Z,3.83
2019-01-17T20:55:14.783Z,3.90
2019-01-17T20:57:44.764Z,3.72
2019-01-17T21:00:31.398Z,3.90
2019-01-17T21:03:00.060Z,3.70
2019-01-17T21:05:28.933Z,3.62
2019-01-17T21:07:57.345Z,3.37
2019-01-17T21:10:30.128Z,4.05
2019-01-17T21:12:58.538Z,3.33
2019-01-17T21:15:27.080Z,3.77
2019-01-17T21:17:55.585Z,3.77
2019-01-17T21:20:24.000Z,4.80
2019-01-17T21:22:52.425Z,3.27
2019-01-17T21:25:21.404Z,3.25
2019-01-17T21:27:49.894Z,3.33
2019-01-17T21:30:23.475Z,3.50
2019-01-17T21:32:53.017Z,3.30
2019-01-17T21:35:21.709Z,3.30
2019-01-17T21:37:50.140Z,3.35
2019-01-17T21:40:23.483Z,3.95
2019-01-17T21:42:51.906Z,3.37
2019-01-17T21:45:20.401Z,3.27
2019-01-17T21:47:49.030Z,3.40
2019-01-17T21:50:31.582Z,3.30
2019-01-17T21:53:01.499Z,3.42
2019-01-17T21:55:29.982Z,3.20
2019-01-17T21:57:58.402Z,2.90
2019-01-17T22:00:30.669Z,3.00
2019-01-17T22:02:59.278Z,3.20
2019-01-17T22:05:27.749Z,3.35
2019-01-17T22:07:56.442Z,3.62
2019-01-17T22:10:24.949Z,3.47
2019-01-17T22:12:57.586Z,3.30
2019-01-17T22:15:27.926Z,3.12
2019-01-17T22:17:56.381Z,3.10
2019-01-17T22:20:24.800Z,3.08
2019-01-17T22:22:53.528Z,3.30
2019-01-17T22:25:21.941Z,2.85
2019-01-17T22:27:52.192Z,2.85
2019-01-17T22:30:29.876Z,2.90
2019-01-17T22:32:58.361Z,3.08
2019-01-17T22:35:27.010Z,2.98
2019-01-17T22:37:55.642Z,3.10
2019-01-17T22:40:24.103Z,2.92
2019-01-17T22:42:52.520Z,2.87
2019-01-17T22:45:24.348Z,3.12
2019-01-17T22:47:52.752Z,2.67
2019-01-17T22:50:21.310Z,2.70
2019-01-17T22:52:52.062Z,2.85
2019-01-17T22:55:20.614Z,2.62
2019-01-17T22:57:49.025Z,2.25
2019-01-17T23:00:30.963Z,3.00
2019-01-17T23:02:59.379Z,2.80
2019-01-17T23:05:27.787Z,2.60
2019-01-17T23:07:57.249Z,3.52
2019-01-17T23:10:25.732Z,2.80
2019-01-17T23:12:54.146Z,3.50
2019-01-17T23:15:24.553Z,2.67
2019-01-17T23:17:52.968Z,3.10
2019-01-17T23:20:21.380Z,2.50
2019-01-17T23:22:49.868Z,2.50
2019-01-17T23:25:18.294Z,2.87
2019-01-17T23:27:46.721Z,3.30
2019-01-17T23:30:16.982Z,2.35
2019-01-17T23:32:45.397Z,3.42
2019-01-17T23:35:13.802Z,2.67
2019-01-17T23:37:42.310Z,2.85
2019-01-17T23:40:11.356Z,2.75
2019-01-17T23:42:39.768Z,2.50
2019-01-17T23:45:09.713Z,2.40
2019-01-17T23:47:38.136Z,2.40
2019-01-17T23:50:09.378Z,3.30
2019-01-17T23:52:38.535Z,2.42
2019-01-17T23:55:07.786Z,2.70
2019-01-17T23:57:36.202Z,2.22
